Strona główna
METAR-TAF:

METAR-TAF

Lotnisko :

Port lotniczy Haugesund

Haugesund, Norwegia

Szerokość geograficzna: 59-21N, Długość geograficzna: 005-13E, wysokość: 2 m

Aktualna obserwacja pogody

Raport powstał 20 minut temu, godzina 19:50 UTC
Wiatr 10 kt od zachodnio-południowy zachód
Temperatura 7°C
Wilgotność 87%
Ciśnienie 1037 hPa
Widzialność 10 km lub więcej
Mało chmury na wysokości 3800 ft
Rozproszone chmury na wysokości 4400 ft
Przerywane chmury na wysokości 5900 ft

METAR: ENHD 191950Z 24010KT 9999 FEW038 SCT044 BKN059 07/05 Q1037

czas: 21:10 (20:10 UTC)

Prognoza

Raport powstał 3 godziny i 10 minut temu, godzina 17:00 UTC
Prognoza ważna od 19 godzina 18 UTC do 19 godzina 23 UTC
Wiatr 12 kt od zachodnio-południowy zachód
Widzialność 10 km lub więcej
Mało chmury na wysokości 800 ft
Przerywane chmury na wysokości 2000 ft
słaby deszcz

TAF: ENHD 191700Z 1918/1923 25012KT 9999 -RA FEW008 BKN020

Obserwacja i prognoza pogody dla ponad 4000 lotnisk (raport METAR i TAF).

Dostępne stacje oznaczono żółtymi i czerwonymi punktami na mapie.

Najedź kursorem aby zobaczyć nazwę stacji.

Kliknij aby zobaczyć obserwacje i prognozy pogody.

Aby zmienić mapę: kliknij na zielony przycisk z czarnym krzyżykiem, aby powiększyć; na zielony przycisk z myślnikiem, aby pomniejszyć; na zielone strzałki, aby przejść do map sąsiednich.


METAR-TAF: